Argent Gerbera — V7UC4 — position and weather

sailwx.info

Track history (hours):
 
Tides and Currents Weather Stations Pressure Air Temp Water Temp Dewpoint Dewpoint Depression Visibility Wind Speed Wind Dir Waves Ship Positions

Argent Gerbera

Last reported at 2016-Jul-27 01:34 UTC. Time now 2016-Jul-27 01:56 UTC.
Position N 45°60' W 124°44'.

Length 175 m; draft 10.3 m.

Type: Ship (hazmat cat B). MMSI: 538003929.

Date/timePositionNaut miles runAvg speedWind from/ knotsBaromVisibWave heightAir tempDewpointWater temp
2016-Jul-27 01:34N 45°60' W 124°44'1515.2
2016-Jul-27 00:33N 46°06' W 124°25'1413.7
2016-Jul-26 23:33N 46°13' W 124°08'9 8.8
2016-Jul-26 22:34N 46°12' W 123°55'1010.1
2016-Jul-26 21:34N 46°15' W 123°42'1111.3
2016-Jul-26 20:34N 46°13' W 123°25'1010.1
2016-Jul-26 19:34N 46°11' W 123°11'1312.7
2016-Jul-26 18:33N 46°05' W 122°55'5 4.4
2016-Jul-26 17:31N 46°01' W 122°52'0 0.0
2016-Jul-26 16:31N 46°01' W 122°52'0 0.0
2016-Jul-26 15:31N 46°01' W 122°52'0 0.0
2016-Jul-26 14:31N 46°01' W 122°52'0 0.0
2016-Jul-26 13:31N 46°01' W 122°52'0 0.0
2016-Jul-26 12:31N 46°01' W 122°52'0 0.0
2016-Jul-26 11:31N 46°01' W 122°52'0 0.0
2016-Jul-26 10:31N 46°01' W 122°52'0 0.0
2016-Jul-26 09:31N 46°01' W 122°52'0 0.0
2016-Jul-26 08:31N 46°01' W 122°52'0 0.0
2016-Jul-26 07:31N 46°01' W 122°52'0 0.0
2016-Jul-26 06:31N 46°01' W 122°52'0 0.0
2016-Jul-26 05:31N 46°01' W 122°52'0 0.0
2016-Jul-26 04:31N 46°01' W 122°52'0 0.0
2016-Jul-26 03:31N 46°01' W 122°52'0 0.0
2016-Jul-26 02:31N 46°01' W 122°52'0 0.0
2016-Jul-26 01:31N 46°01' W 122°52'0 0.0
2016-Jul-26 00:31N 46°01' W 122°52'0 0.0
2016-Jul-25 23:31N 46°01' W 122°52'0 0.0
2016-Jul-25 22:31N 46°01' W 122°52'0 0.0
2016-Jul-25 21:31N 46°01' W 122°52'0 0.0
2016-Jul-25 20:31N 46°01' W 122°52'0 0.0
2016-Jul-25 19:31N 46°01' W 122°52'0 0.0
2016-Jul-25 18:33N 46°01' W 122°52'9 9.4
2016-Jul-25 17:33N 46°08' W 123°01'1110.8
2016-Jul-25 16:33N 46°09' W 123°16'9 9.3
2016-Jul-25 15:33N 46°15' W 123°27'1211.6
2016-Jul-25 14:34N 46°14' W 123°43'10 9.5
2016-Jul-25 13:33N 46°13' W 123°57'1110.6
2016-Jul-25 12:34N 46°12' W 124°12'8 8.2
2016-Jul-25 11:34N 46°11' W 124°24'1413.8
2016-Jul-25 10:33N 46°11' W 124°44'1515.0
2016-Jul-25 09:33N 46°11' W 125°06'1514.9
2016-Jul-25 08:33N 46°11' W 125°27'1514.9
2016-Jul-25 07:33N 46°10' W 125°49'1515.3
2016-Jul-25 06:33N 46°10' W 126°11'1515.2
2016-Jul-25 05:33N 46°10' W 126°33'1515.0
2016-Jul-25 04:33N 46°10' W 126°54'1814.8
2016-Jul-25 03:19N 46°10' W 127°21'  
Track history (hours):
 
Tides and Currents Weather Stations Pressure Air Temp Water Temp Dewpoint Dewpoint Depression Visibility Wind Speed Wind Dir Waves Ship Positions

Argent Gerbera

Last reported at 2016-Jul-27 01:34 UTC. Time now 2016-Jul-27 01:56 UTC.
Position N 45°60' W 124°44'.

Length 175 m; draft 10.3 m.

Type: Ship (hazmat cat B). MMSI: 538003929.

Date/timePositionNaut miles runAvg speedWind from/ knotsBaromVisibWave heightAir tempDewpointWater temp
2016-Jul-27 01:34N 45°60' W 124°44'1515.2
2016-Jul-27 00:33N 46°06' W 124°25'1413.7
2016-Jul-26 23:33N 46°13' W 124°08'9 8.8
2016-Jul-26 22:34N 46°12' W 123°55'1010.1
2016-Jul-26 21:34N 46°15' W 123°42'1111.3
2016-Jul-26 20:34N 46°13' W 123°25'1010.1
2016-Jul-26 19:34N 46°11' W 123°11'1312.7
2016-Jul-26 18:33N 46°05' W 122°55'5 4.4
2016-Jul-26 17:31N 46°01' W 122°52'0 0.0
2016-Jul-26 16:31N 46°01' W 122°52'0 0.0
2016-Jul-26 15:31N 46°01' W 122°52'0 0.0
2016-Jul-26 14:31N 46°01' W 122°52'0 0.0
2016-Jul-26 13:31N 46°01' W 122°52'0 0.0
2016-Jul-26 12:31N 46°01' W 122°52'0 0.0
2016-Jul-26 11:31N 46°01' W 122°52'0 0.0
2016-Jul-26 10:31N 46°01' W 122°52'0 0.0
2016-Jul-26 09:31N 46°01' W 122°52'0 0.0
2016-Jul-26 08:31N 46°01' W 122°52'0 0.0
2016-Jul-26 07:31N 46°01' W 122°52'0 0.0
2016-Jul-26 06:31N 46°01' W 122°52'0 0.0
2016-Jul-26 05:31N 46°01' W 122°52'0 0.0
2016-Jul-26 04:31N 46°01' W 122°52'0 0.0
2016-Jul-26 03:31N 46°01' W 122°52'0 0.0
2016-Jul-26 02:31N 46°01' W 122°52'0 0.0
2016-Jul-26 01:31N 46°01' W 122°52'0 0.0
2016-Jul-26 00:31N 46°01' W 122°52'0 0.0
2016-Jul-25 23:31N 46°01' W 122°52'0 0.0
2016-Jul-25 22:31N 46°01' W 122°52'0 0.0
2016-Jul-25 21:31N 46°01' W 122°52'0 0.0
2016-Jul-25 20:31N 46°01' W 122°52'0 0.0
2016-Jul-25 19:31N 46°01' W 122°52'0 0.0
2016-Jul-25 18:33N 46°01' W 122°52'9 9.4
2016-Jul-25 17:33N 46°08' W 123°01'1110.8
2016-Jul-25 16:33N 46°09' W 123°16'9 9.3
2016-Jul-25 15:33N 46°15' W 123°27'1211.6
2016-Jul-25 14:34N 46°14' W 123°43'10 9.5
2016-Jul-25 13:33N 46°13' W 123°57'1110.6
2016-Jul-25 12:34N 46°12' W 124°12'8 8.2
2016-Jul-25 11:34N 46°11' W 124°24'1413.8
2016-Jul-25 10:33N 46°11' W 124°44'1515.0
2016-Jul-25 09:33N 46°11' W 125°06'1514.9
2016-Jul-25 08:33N 46°11' W 125°27'1514.9
2016-Jul-25 07:33N 46°10' W 125°49'1515.3
2016-Jul-25 06:33N 46°10' W 126°11'1515.2
2016-Jul-25 05:33N 46°10' W 126°33'1515.0
2016-Jul-25 04:33N 46°10' W 126°54'1814.8
2016-Jul-25 03:19N 46°10' W 127°21'  

Dump ship's entire track history